Sandnessjøen, Norge

17:32:CEST den 31. juli 2014 (GMT +0200)
Stokka (ENST) H.o.h 56 ft | 65.96 °N, 12.47 °E | Change Station

Current weather conditions updated 42 minutes ago

Rain Showers
Regnbyger
59 °F
Feels Like 59 °F
N
20
Vind Variabel Vind from Sør

Tomorrow is forecast to be Cooler than today. Byger om morgenen..

I dag
High -- | Low -- °F
--% Chance of Precip.
I går
High -- | Low -- °F
Precip. -- tommer
3:51 AM 10:38 PM
Økende sigd, 19% visible
Lufttrykk 29.47 tommer
Sikt 6.2 eng. mil
Skyet Few 1300 ft
Sporadisk skyet 2200 ft
For det meste skyet 5000 ft
Duggpunkt 55 °F
Fuktighet 88%
Regn 0.00 tommer
Snødybde Not available.
UV 2 av 12
Pollen Not available.
Luftkvalitet Not available.
Flu Activity Not available.
METAR ENST 311450Z 19017KT 9999 SHRA FEW013TCU SCT022 BKN050 15/13 Q0998 RMK WIND 300FT 19020KT

More Conditions Fewer Conditions

Lufttrykk 29.47 tommer
Sikt 6.2 eng. mil
Skyet Few 1300 ft
Sporadisk skyet 2200 ft
For det meste skyet 5000 ft
Duggpunkt 55 °F
Fuktighet 88%
Regn 0.00 tommer
Snødybde Not available.
UV 2 av 12
Pollen Not available.
Luftkvalitet Not available.
Flu Activity Not available.
METAR ENST 311450Z 19017KT 9999 SHRA FEW013TCU SCT022 BKN050 15/13 Q0998 RMK WIND 300FT 19020KT

More Conditions Fewer Conditions

10-Day Weather Forecast

Almanac

Astronomi

Jul. 31, 2014 Oppgang Nedgang
Virkelig tid 03:51 CEST 22:38 CEST
Tussmørke 01:48 CEST 00:44 CEST
Nautisk skumring Sun does not rise Sun does not rise
Astronomisk skumring Sun does not rise Sun does not rise
Månen 10:21 CEST 22:15 CEST
Lengde av synlig lys 22h 55m
Dagens lengde
18h 46m
Tomorrow will be 7m 49s shorter.
Økende sigd, 19% of the Moon is Illuminated
I dag
Økende sigd
Aug 3
Første kvarter
Aug 10
Fullmåne
Aug 17
Siste kvarter
Aug 25
Ny

Dagens maks og min

Country Highs Country Lows

Community

WunderPhotos

Upload Photos

1,739,357 photos uploaded!

Nearby

Snødybde

Not available.

Earthquake Activity

By Distance Mag. Time & Date
No recent earthquake activity has been reported nearby.
Minimum magnitude displayed is 2.5.

Coastal Water Temperatures

Sted Temperatur
Ingen stasjoner raporterer

Nearby Weather Stations

Stasjonens lokasjon Temp. Duggpunkt Fuktighet Vind Precip. H.o.h Oppdatert Type
Leinesodden, Leland 61.3 °F 58 °F 88% SV  i  33.0 mph 0.00 tommer / hr 30 ft 5:32 PM CEST Rapid Fire
Osodden, Vevelstad 61.3 °F 51 °F 69% VSV  i  7.6 mph 0.00 tommer / hr 89 ft 5:32 PM CEST Rapid Fire
Mosjoen, Kulstaddalen, Mosjoen 61.0 °F 54 °F 79% SSØ  i  6.0 mph 0.00 tommer / hr 262 ft 5:29 PM CEST Normal
Marka, Mosjoen 61.3 °F 54 °F 76%  i  5.1 mph 0.01 tommer / hr 260 ft 5:32 PM CEST Rapid Fire

Show More Stations Show Fewer Stations